Glenwood, Oregon
Current Conditions -  °F | °C
As of 2:03 AM on Thursday 29 Jan 2015 (Local Time) from KHIO Reporting Station
Clear Clear  
Wind Chill: 46°   Ceiling: Unl
Heat Index: 46°   Visibility: 7mi
Dew Point: 46°   Wind: 3mph
Humidity: 100%   Direction: 20°NNE
Pressure: 30.32"   Gusts: NA
Location:  45.6684°N, 123.34°W
Report Text: KHIO 291003Z AUTO 02003KT 7SM CLR 08/08 A3032 RMK AO2 T00780078
Loading
Personal Weather Stations






























Interactive Weather Map New forecast layout! Learn more

10-Day Weather Forecast

Advertisements
Track Severe Weather on mobile